createdAt,value
2022-09-28T00:01:25.123Z,118.03
2022-09-28T00:03:52.494Z,174.85
2022-09-28T00:06:20.156Z,103.57
2022-09-28T00:08:46.692Z,176.02
2022-09-28T00:11:15.249Z,186.20
2022-09-28T00:13:42.895Z,193.63
2022-09-28T00:16:11.116Z,174.27
2022-09-28T00:18:37.745Z,201.98
2022-09-28T00:21:06.505Z,234.60
2022-09-28T00:23:33.432Z,243.23
2022-09-28T00:26:05.864Z,257.40
2022-09-28T00:28:32.348Z,283.52
2022-09-28T00:30:59.071Z,63.75
2022-09-28T00:33:26.009Z,39.05
2022-09-28T00:35:56.591Z,55.20
2022-09-28T00:38:26.147Z,51.05
2022-09-28T00:40:52.591Z,36.50
2022-09-28T00:43:20.398Z,60.15
2022-09-28T00:45:53.286Z,40.42
2022-09-28T00:48:19.834Z,42.60
2022-09-28T00:50:46.399Z,44.60
2022-09-28T00:53:19.791Z,59.33
2022-09-28T00:55:49.696Z,43.40
2022-09-28T00:58:18.853Z,44.60
2022-09-28T01:00:45.862Z,29.65
2022-09-28T01:03:14.282Z,50.25
2022-09-28T01:05:40.933Z,50.58
2022-09-28T01:08:07.477Z,47.42
2022-09-28T01:10:34.043Z,54.50
2022-09-28T01:13:00.583Z,50.28
2022-09-28T01:15:28.517Z,54.45
2022-09-28T01:18:00.573Z,71.32
2022-09-28T01:20:51.265Z,71.57
2022-09-28T01:23:27.798Z,74.47
2022-09-28T01:26:14.497Z,85.57
2022-09-28T01:28:43.162Z,49.50
2022-09-28T01:31:10.563Z,41.10
2022-09-28T01:33:57.322Z,33.85
2022-09-28T01:36:42.824Z,37.13
2022-09-28T01:39:10.840Z,58.10
2022-09-28T01:41:40.355Z,70.05
2022-09-28T01:44:09.048Z,34.85
2022-09-28T01:46:38.114Z,45.10
2022-09-28T01:49:11.096Z,50.90
2022-09-28T01:51:37.664Z,41.42
2022-09-28T01:54:10.059Z,51.25
2022-09-28T01:56:42.802Z,32.72
2022-09-28T01:59:12.289Z,76.22
2022-09-28T02:01:43.943Z,44.85
2022-09-28T02:04:21.072Z,51.55
2022-09-28T02:07:08.924Z,41.15
2022-09-28T02:09:38.576Z,59.65
2022-09-28T02:12:27.455Z,55.40
2022-09-28T02:14:56.452Z,77.70
2022-09-28T02:17:23.022Z,64.18
2022-09-28T02:19:49.507Z,41.85
2022-09-28T02:22:32.083Z,85.72
2022-09-28T02:25:21.137Z,50.55
2022-09-28T02:27:56.801Z,51.85
2022-09-28T02:30:23.313Z,86.20
2022-09-28T02:32:51.180Z,66.93
2022-09-28T02:35:18.729Z,57.13
2022-09-28T02:37:45.844Z,40.28
2022-09-28T02:40:20.569Z,69.07
2022-09-28T02:43:07.778Z,31.23
2022-09-28T02:45:44.704Z,45.83
2022-09-28T02:48:14.326Z,43.10
2022-09-28T02:50:59.891Z,50.58
2022-09-28T02:53:35.452Z,49.35
2022-09-28T02:56:05.157Z,52.50
2022-09-28T02:58:37.795Z,42.03
2022-09-28T03:01:15.240Z,62.35
2022-09-28T03:03:55.485Z,46.22
2022-09-28T03:06:30.501Z,50.55
2022-09-28T03:09:14.358Z,45.25
2022-09-28T03:11:43.360Z,81.20
2022-09-28T03:14:10.141Z,57.25
2022-09-28T03:16:47.110Z,51.92
2022-09-28T03:19:14.197Z,43.40
2022-09-28T03:21:41.367Z,51.03
2022-09-28T03:24:10.486Z,58.38
2022-09-28T03:26:38.342Z,60.90
2022-09-28T03:29:05.914Z,57.35
2022-09-28T03:31:32.554Z,61.05
2022-09-28T03:33:59.168Z,49.70
2022-09-28T03:36:25.693Z,50.10
2022-09-28T03:38:53.233Z,54.20
2022-09-28T03:41:19.874Z,105.68
2022-09-28T03:43:46.337Z,59.53
2022-09-28T03:46:13.930Z,63.13
2022-09-28T03:48:45.365Z,30.90
2022-09-28T03:51:12.503Z,39.55
2022-09-28T03:53:39.352Z,69.93
2022-09-28T03:56:13.976Z,53.33
2022-09-28T03:58:41.350Z,31.60
2022-09-28T04:01:16.449Z,117.15
2022-09-28T04:03:45.161Z,79.10
2022-09-28T04:06:12.058Z,57.45
2022-09-28T04:08:38.865Z,60.10
2022-09-28T04:11:05.595Z,58.97
2022-09-28T04:13:33.582Z,64.30
2022-09-28T04:16:01.181Z,55.20
2022-09-28T04:18:29.945Z,69.28
2022-09-28T04:21:10.777Z,71.65
2022-09-28T04:23:50.574Z,55.15
2022-09-28T04:26:18.741Z,171.80
2022-09-28T04:29:06.821Z,141.65
2022-09-28T04:31:38.631Z,143.40
2022-09-28T04:34:05.181Z,144.93
2022-09-28T04:36:32.035Z,119.75
2022-09-28T04:38:58.490Z,74.90
2022-09-28T04:41:26.792Z,86.25
2022-09-28T04:43:53.222Z,93.38
2022-09-28T04:46:20.164Z,82.53
2022-09-28T04:49:01.656Z,62.75
2022-09-28T04:51:48.077Z,56.08
2022-09-28T04:54:14.535Z,43.00
2022-09-28T04:56:41.797Z,60.20
2022-09-28T04:59:08.410Z,42.15
2022-09-28T05:01:37.035Z,56.13
2022-09-28T05:04:25.941Z,50.85
2022-09-28T05:07:15.824Z,136.77
2022-09-28T05:09:42.919Z,224.57
2022-09-28T05:12:09.793Z,203.55
2022-09-28T05:14:37.217Z,209.10
2022-09-28T05:17:05.110Z,224.05
2022-09-28T05:19:47.082Z,216.57
2022-09-28T05:22:14.908Z,233.27
2022-09-28T05:24:46.444Z,230.10
2022-09-28T05:27:13.516Z,239.60
2022-09-28T05:29:40.422Z,228.80
2022-09-28T05:32:25.180Z,284.67
2022-09-28T05:35:11.912Z,257.50
2022-09-28T05:37:45.167Z,285.83
2022-09-28T05:40:12.082Z,241.52
2022-09-28T05:42:38.945Z,282.70
2022-09-28T05:45:06.422Z,262.67
2022-09-28T05:47:37.306Z,272.75
2022-09-28T05:50:08.923Z,234.18
2022-09-28T05:52:35.371Z,265.52
2022-09-28T05:55:03.319Z,299.42
2022-09-28T05:57:30.357Z,292.83
2022-09-28T05:59:57.497Z,292.25
2022-09-28T06:02:24.507Z,273.80
2022-09-28T06:04:51.988Z,225.90
2022-09-28T06:07:18.473Z,240.85
2022-09-28T06:09:44.935Z,243.00
2022-09-28T06:12:16.847Z,225.35
2022-09-28T06:14:47.185Z,233.60
2022-09-28T06:17:13.662Z,240.20
2022-09-28T06:19:40.874Z,210.02
2022-09-28T06:22:22.563Z,211.15
2022-09-28T06:24:55.597Z,253.32
2022-09-28T06:27:23.975Z,198.50
2022-09-28T06:29:50.489Z,196.10
2022-09-28T06:32:17.033Z,228.45
2022-09-28T06:34:46.595Z,185.02
2022-09-28T06:37:13.103Z,204.63
2022-09-28T06:39:39.656Z,209.88
2022-09-28T06:42:06.406Z,220.75
2022-09-28T06:44:52.804Z,170.65
2022-09-28T06:47:42.085Z,212.38
2022-09-28T06:50:20.700Z,217.65
2022-09-28T06:53:07.037Z,203.20
2022-09-28T06:55:49.153Z,201.63
2022-09-28T06:58:17.850Z,174.80
2022-09-28T07:00:44.343Z,182.40
2022-09-28T07:03:11.941Z,179.02
2022-09-28T07:05:57.231Z,169.45
2022-09-28T07:09:10.929Z,198.40
2022-09-28T07:12:04.256Z,207.77
2022-09-28T07:14:47.746Z,225.50
2022-09-28T07:19:42.760Z,218.68
2022-09-28T07:22:18.615Z,218.45
2022-09-28T07:24:46.667Z,203.38
2022-09-28T07:27:31.854Z,175.45
2022-09-28T07:30:14.027Z,183.18
2022-09-28T07:32:55.491Z,154.35
2022-09-28T07:35:52.384Z,204.70
2022-09-28T07:38:20.313Z,195.98
2022-09-28T07:41:05.644Z,202.25
2022-09-28T07:43:32.502Z,207.55
2022-09-28T07:45:59.059Z,191.90
2022-09-28T07:48:25.738Z,225.18
2022-09-28T07:51:00.051Z,205.77
2022-09-28T07:53:32.102Z,172.88
2022-09-28T07:56:17.393Z,142.13
2022-09-28T07:59:17.621Z,142.73
2022-09-28T08:02:02.648Z,153.23
2022-09-28T08:04:30.395Z,130.88
2022-09-28T08:06:56.936Z,117.25
2022-09-28T08:09:23.394Z,142.13
2022-09-28T08:12:10.565Z,208.20
2022-09-28T08:15:10.299Z,177.10
2022-09-28T08:17:46.225Z,137.43
2022-09-28T08:20:31.589Z,109.68
2022-09-28T08:23:08.665Z,182.18
2022-09-28T08:25:39.709Z,121.80
2022-09-28T08:28:10.079Z,200.70
2022-09-28T08:30:45.164Z,172.45
2022-09-28T08:33:31.964Z,188.48
2022-09-28T08:36:16.768Z,144.93
2022-09-28T08:39:01.309Z,93.53
2022-09-28T08:41:35.226Z,118.32
2022-09-28T08:44:23.960Z,110.80
2022-09-28T08:47:54.562Z,80.63
2022-09-28T08:50:33.108Z,78.95
2022-09-28T08:56:00.526Z,109.28
2022-09-28T08:58:30.413Z,78.55
2022-09-28T09:00:58.487Z,99.95
2022-09-28T09:03:31.927Z,75.32
2022-09-28T09:06:30.178Z,86.00
2022-09-28T09:09:00.062Z,81.18
2022-09-28T09:11:38.677Z,86.03
2022-09-28T09:14:14.798Z,91.65
2022-09-28T09:17:00.004Z,84.03
2022-09-28T09:22:21.642Z,70.18
2022-09-28T09:24:48.885Z,83.05
2022-09-28T09:27:29.973Z,51.95
2022-09-28T09:30:06.611Z,55.10
2022-09-28T09:32:40.143Z,41.03
2022-09-28T09:35:06.876Z,60.22
2022-09-28T09:38:01.895Z,49.25
2022-09-28T09:40:29.095Z,87.82
2022-09-28T09:43:07.275Z,49.88
2022-09-28T09:45:44.138Z,62.90
2022-09-28T09:48:33.825Z,49.05
2022-09-28T09:51:03.069Z,39.88
2022-09-28T09:53:37.612Z,287.08
2022-09-28T09:56:15.160Z,44.42
2022-09-28T09:59:11.605Z,57.28
2022-09-28T10:01:56.712Z,53.75
2022-09-28T10:04:39.481Z,51.58
2022-09-28T10:07:20.621Z,40.03
2022-09-28T10:09:48.936Z,62.85
2022-09-28T10:12:26.472Z,52.88
2022-09-28T10:14:55.275Z,58.58
2022-09-28T10:17:27.378Z,56.10
2022-09-28T10:20:13.402Z,63.53
2022-09-28T10:23:02.023Z,59.15
2022-09-28T10:25:31.260Z,48.53
2022-09-28T10:27:59.413Z,56.22
2022-09-28T10:30:25.919Z,39.92
2022-09-28T10:32:55.155Z,47.95
2022-09-28T10:35:23.957Z,65.47
2022-09-28T10:38:03.273Z,57.50
2022-09-28T10:40:49.225Z,55.13
2022-09-28T10:43:23.482Z,56.95
2022-09-28T10:46:06.187Z,65.07
2022-09-28T10:48:45.999Z,46.95
2022-09-28T10:51:12.478Z,54.78
2022-09-28T10:53:40.048Z,43.45
2022-09-28T10:56:21.353Z,67.15
2022-09-28T10:58:52.145Z,42.40
2022-09-28T11:01:37.287Z,54.13
2022-09-28T11:04:06.126Z,62.22
2022-09-28T11:06:37.230Z,89.07
2022-09-28T11:09:22.651Z,66.20
2022-09-28T11:11:49.610Z,63.50
2022-09-28T11:14:41.336Z,37.63
2022-09-28T11:17:22.788Z,34.10
2022-09-28T11:19:49.358Z,44.03
2022-09-28T11:22:25.140Z,81.63
2022-09-28T11:25:20.250Z,48.65
2022-09-28T11:27:52.970Z,41.95
2022-09-28T11:30:23.196Z,35.03
2022-09-28T11:33:14.993Z,42.17
2022-09-28T11:36:13.890Z,33.75
2022-09-28T11:38:47.411Z,53.13
2022-09-28T11:41:32.755Z,106.88
2022-09-28T11:44:18.380Z,54.97
2022-09-28T11:47:03.500Z,32.35
2022-09-28T11:49:38.977Z,51.75
2022-09-28T11:52:10.891Z,56.35
2022-09-28T11:54:44.272Z,32.90
2022-09-28T11:57:14.866Z,41.33
2022-09-28T11:59:53.537Z,53.40
2022-09-28T12:02:40.385Z,59.15
2022-09-28T12:05:22.633Z,42.25
2022-09-28T12:08:00.116Z,71.70
2022-09-28T12:10:47.484Z,61.95
2022-09-28T12:13:22.542Z,57.42
2022-09-28T12:18:38.334Z,38.70
2022-09-28T12:21:09.824Z,58.83
2022-09-28T12:23:38.143Z,87.85
2022-09-28T12:26:28.457Z,58.13
2022-09-28T12:28:58.235Z,63.53
2022-09-28T12:31:35.488Z,56.00
2022-09-28T12:34:02.227Z,54.92
2022-09-28T12:36:33.907Z,58.08
2022-09-28T12:39:27.124Z,65.88
2022-09-28T12:42:16.616Z,72.70
2022-09-28T12:45:02.191Z,78.75
2022-09-28T12:47:38.352Z,68.82
2022-09-28T12:53:03.004Z,64.30
2022-09-28T12:55:39.817Z,28.63
2022-09-28T12:58:16.048Z,55.75
2022-09-28T13:00:49.819Z,49.00
2022-09-28T13:03:35.065Z,43.55
2022-09-28T13:06:20.285Z,79.03
2022-09-28T13:08:56.436Z,24.27
2022-09-28T13:11:26.177Z,41.53
2022-09-28T13:14:27.878Z,87.10
2022-09-28T13:17:02.976Z,46.13
2022-09-28T13:19:47.764Z,54.50
2022-09-28T13:22:16.919Z,81.68
2022-09-28T13:24:44.355Z,61.47
2022-09-28T13:27:15.043Z,34.72
2022-09-28T13:29:41.945Z,41.50
2022-09-28T13:32:09.791Z,39.55
2022-09-28T13:34:36.775Z,56.72
2022-09-28T13:37:18.833Z,68.97
2022-09-28T13:39:45.261Z,49.42
2022-09-28T13:42:12.785Z,28.45
2022-09-28T13:44:55.490Z,46.25
2022-09-28T13:47:37.648Z,72.95
2022-09-28T13:50:23.188Z,37.25
2022-09-28T13:52:58.225Z,55.97
2022-09-28T13:55:43.149Z,41.33
2022-09-28T13:58:18.109Z,50.20
2022-09-28T14:00:45.588Z,58.17
2022-09-28T14:03:38.056Z,46.88
2022-09-28T14:06:08.071Z,50.00
2022-09-28T14:08:44.734Z,93.00
2022-09-28T14:11:24.738Z,54.53
2022-09-28T14:14:01.305Z,61.33
2022-09-28T14:16:31.258Z,68.50
2022-09-28T14:21:38.075Z,47.58
2022-09-28T14:24:07.926Z,61.05
2022-09-28T14:26:39.549Z,55.80
2022-09-28T14:29:32.232Z,36.10
2022-09-28T14:32:03.653Z,58.70
2022-09-28T14:34:35.209Z,45.05
2022-09-28T14:37:22.178Z,80.75
2022-09-28T14:40:07.517Z,68.03
2022-09-28T14:42:34.145Z,46.28
2022-09-28T14:45:05.260Z,52.58
2022-09-28T14:47:36.766Z,98.88
2022-09-28T14:50:21.980Z,60.53
2022-09-28T14:52:53.278Z,46.83
2022-09-28T14:55:23.841Z,60.53
2022-09-28T14:57:52.471Z,52.17
2022-09-28T15:00:21.130Z,43.78
2022-09-28T15:02:49.152Z,34.88
2022-09-28T15:05:38.091Z,52.20
2022-09-28T15:08:05.715Z,31.02
2022-09-28T15:10:33.549Z,35.83
2022-09-28T15:13:04.120Z,60.58
2022-09-28T15:15:33.177Z,55.20
2022-09-28T15:18:04.438Z,51.72
2022-09-28T15:20:33.938Z,57.83
2022-09-28T15:23:00.410Z,71.55
2022-09-28T15:25:28.215Z,30.15
2022-09-28T15:27:56.426Z,61.17
2022-09-28T15:30:23.289Z,58.50
2022-09-28T15:32:53.077Z,40.53
2022-09-28T15:35:21.141Z,42.65
2022-09-28T15:37:52.102Z,62.55
2022-09-28T15:40:28.924Z,47.08
2022-09-28T15:42:59.032Z,57.80
2022-09-28T15:45:36.686Z,41.30
2022-09-28T15:48:17.126Z,45.42
2022-09-28T15:50:53.810Z,39.47
2022-09-28T15:53:20.265Z,45.83
2022-09-28T15:55:50.204Z,80.05
2022-09-28T15:58:18.331Z,83.93
2022-09-28T16:00:46.370Z,62.63
2022-09-28T16:03:15.918Z,52.83
2022-09-28T16:05:46.146Z,91.47
2022-09-28T16:08:22.104Z,46.75
2022-09-28T16:10:53.391Z,41.85
2022-09-28T16:13:20.481Z,22.65
2022-09-28T16:15:55.401Z,62.25
2022-09-28T16:18:23.516Z,36.47
2022-09-28T16:20:51.510Z,49.53
2022-09-28T16:23:25.593Z,42.80
2022-09-28T16:25:59.376Z,59.83
2022-09-28T16:28:25.861Z,38.65
2022-09-28T16:31:23.170Z,38.30
2022-09-28T16:33:54.195Z,59.72
2022-09-28T16:36:22.377Z,38.85
2022-09-28T16:38:49.473Z,58.17
2022-09-28T16:41:19.399Z,105.45
2022-09-28T16:43:46.406Z,97.47
2022-09-28T16:46:14.395Z,63.08
2022-09-28T16:48:45.784Z,57.97
2022-09-28T16:51:12.249Z,42.45
2022-09-28T16:53:57.299Z,66.18
2022-09-28T16:56:23.816Z,56.85
2022-09-28T16:58:50.697Z,78.88
2022-09-28T17:01:17.209Z,40.00
2022-09-28T17:03:46.882Z,64.63
2022-09-28T17:06:13.963Z,71.72
2022-09-28T17:08:40.446Z,63.05
2022-09-28T17:11:15.889Z,42.70
2022-09-28T17:13:45.809Z,58.92
2022-09-28T17:16:12.335Z,57.53
2022-09-28T17:18:39.970Z,37.13
2022-09-28T17:21:09.521Z,43.35
2022-09-28T17:23:35.991Z,65.35
2022-09-28T17:26:02.892Z,50.92
2022-09-28T17:28:33.434Z,48.63
2022-09-28T17:31:00.007Z,45.47
2022-09-28T17:33:26.624Z,59.10
2022-09-28T17:35:57.605Z,67.03
2022-09-28T17:38:24.065Z,70.25
2022-09-28T17:40:50.493Z,76.45
2022-09-28T17:43:17.099Z,46.13
2022-09-28T17:45:45.103Z,62.78
2022-09-28T17:48:15.871Z,52.88
2022-09-28T17:50:46.262Z,75.72
2022-09-28T17:53:13.518Z,49.45
2022-09-28T17:55:40.425Z,64.07
2022-09-28T17:58:12.897Z,54.50
2022-09-28T18:00:40.249Z,46.95
2022-09-28T18:03:09.681Z,65.28
2022-09-28T18:05:36.837Z,60.58
2022-09-28T18:08:03.862Z,52.05
2022-09-28T18:12:12.010Z,74.72
2022-09-28T18:14:39.920Z,98.22
2022-09-28T18:17:06.377Z,76.15
2022-09-28T18:19:32.808Z,76.90
2022-09-28T18:21:59.332Z,112.68
2022-09-28T18:24:25.776Z,86.65
2022-09-28T18:26:52.159Z,68.93
2022-09-28T18:29:18.616Z,64.03
2022-09-28T18:31:45.017Z,88.65
2022-09-28T18:34:12.399Z,97.72
2022-09-28T18:36:38.848Z,127.38
2022-09-28T18:39:05.259Z,131.07
2022-09-28T18:41:32.539Z,132.20
2022-09-28T18:44:02.198Z,141.68
2022-09-28T18:46:29.478Z,141.73
2022-09-28T18:48:56.041Z,224.98
2022-09-28T18:51:22.992Z,209.80
2022-09-28T18:53:50.125Z,222.50
2022-09-28T18:56:21.001Z,204.38
2022-09-28T18:58:48.051Z,201.18
2022-09-28T19:01:31.744Z,248.30
2022-09-28T19:04:02.152Z,209.07
2022-09-28T19:06:28.963Z,216.00
2022-09-28T19:08:55.936Z,191.38
2022-09-28T19:11:23.037Z,49.65
2022-09-28T19:13:49.506Z,64.35
2022-09-28T19:16:20.888Z,24.08
2022-09-28T19:18:47.565Z,187.73
2022-09-28T19:21:14.642Z,104.93
2022-09-28T19:23:44.757Z,107.15
2022-09-28T19:28:41.085Z,87.68
2022-09-28T19:31:09.223Z,54.72
2022-09-28T19:33:36.261Z,68.40
2022-09-28T19:36:06.761Z,82.28
2022-09-28T19:38:34.413Z,64.60
2022-09-28T19:41:01.398Z,62.78
2022-09-28T19:43:27.865Z,59.75
2022-09-28T19:45:55.955Z,69.15
2022-09-28T19:48:26.203Z,54.08
2022-09-28T19:50:56.430Z,45.28
2022-09-28T19:53:23.590Z,59.25
2022-09-28T19:55:50.795Z,98.78
2022-09-28T19:58:17.236Z,25.95
2022-09-28T20:00:43.653Z,54.83
2022-09-28T20:03:10.092Z,46.70
2022-09-28T20:05:38.816Z,61.75
2022-09-28T20:08:05.299Z,77.82
2022-09-28T20:10:31.717Z,52.13
2022-09-28T20:12:59.008Z,72.78
2022-09-28T20:15:25.529Z,50.40
2022-09-28T20:17:52.013Z,232.60
2022-09-28T20:20:18.559Z,188.27
2022-09-28T20:22:44.973Z,191.55
2022-09-28T20:25:11.475Z,209.90
2022-09-28T20:27:39.269Z,229.10
2022-09-28T20:30:06.632Z,221.15
2022-09-28T20:32:33.383Z,217.73
2022-09-28T20:34:59.815Z,223.48
2022-09-28T20:37:26.461Z,214.50
2022-09-28T20:39:53.304Z,222.93
2022-09-28T20:42:20.153Z,198.13
2022-09-28T20:44:46.760Z,194.27
2022-09-28T20:47:13.275Z,200.15
2022-09-28T20:49:39.714Z,220.43
2022-09-28T20:52:06.153Z,212.23
2022-09-28T20:54:32.573Z,226.35
2022-09-28T20:56:59.038Z,238.15
2022-09-28T20:59:26.550Z,214.75
2022-09-28T21:01:53.394Z,220.90
2022-09-28T21:04:19.976Z,211.75
2022-09-28T21:06:46.531Z,216.40
2022-09-28T21:09:12.934Z,192.95
2022-09-28T21:11:39.481Z,252.27
2022-09-28T21:14:06.867Z,217.23
2022-09-28T21:16:34.524Z,170.60
2022-09-28T21:19:01.034Z,211.98
2022-09-28T21:21:27.589Z,190.35
2022-09-28T21:23:54.911Z,245.77
2022-09-28T21:26:25.636Z,194.65
2022-09-28T21:28:55.783Z,380.23
2022-09-28T21:31:28.254Z,202.77
2022-09-28T21:33:55.586Z,216.25
2022-09-28T21:36:22.005Z,221.00
2022-09-28T21:38:49.334Z,400.52
2022-09-28T21:41:15.849Z,186.63
2022-09-28T21:43:42.362Z,189.95
2022-09-28T21:46:09.805Z,257.90
2022-09-28T21:48:36.233Z,209.95
2022-09-28T21:51:04.095Z,207.55
2022-09-28T21:53:31.909Z,247.85
2022-09-28T21:55:59.023Z,233.75
2022-09-28T21:58:30.317Z,193.50
2022-09-28T22:01:07.891Z,197.73
2022-09-28T22:03:35.370Z,178.73
2022-09-28T22:06:05.288Z,207.88
2022-09-28T22:08:32.089Z,236.80
2022-09-28T22:11:02.113Z,199.43
2022-09-28T22:13:29.016Z,198.07
2022-09-28T22:15:55.863Z,210.13
2022-09-28T22:18:22.354Z,192.30
2022-09-28T22:20:48.812Z,207.95
2022-09-28T22:23:15.269Z,202.32
2022-09-28T22:25:41.719Z,220.73
2022-09-28T22:28:08.226Z,167.43
2022-09-28T22:30:34.913Z,171.65
2022-09-28T22:33:02.438Z,180.25
2022-09-28T22:35:28.932Z,193.00
2022-09-28T22:37:55.450Z,216.68
2022-09-28T22:40:22.706Z,184.80
2022-09-28T22:42:49.561Z,174.65
2022-09-28T22:45:16.029Z,188.95
2022-09-28T22:47:42.686Z,186.45
2022-09-28T22:50:09.271Z,203.80
2022-09-28T22:52:35.673Z,212.93
2022-09-28T22:55:02.129Z,207.15
2022-09-28T22:57:29.434Z,210.77
2022-09-28T22:59:55.877Z,196.30
2022-09-28T23:02:22.408Z,185.55
2022-09-28T23:04:48.825Z,194.48
2022-09-28T23:07:15.324Z,226.52
2022-09-28T23:09:41.747Z,203.35
2022-09-28T23:12:08.237Z,193.63
2022-09-28T23:14:34.690Z,219.25
2022-09-28T23:17:01.210Z,254.02
2022-09-28T23:19:27.658Z,287.88
2022-09-28T23:21:54.537Z,272.85
2022-09-28T23:24:21.011Z,243.00
2022-09-28T23:26:47.475Z,272.52
2022-09-28T23:29:13.936Z,240.90
2022-09-28T23:31:40.638Z,271.70
2022-09-28T23:34:07.231Z,285.52
2022-09-28T23:36:34.519Z,364.90
2022-09-28T23:39:01.186Z,472.85
2022-09-28T23:41:27.797Z,278.02
2022-09-28T23:43:54.278Z,401.55
2022-09-28T23:46:21.403Z,383.63
2022-09-28T23:48:48.458Z,329.17
2022-09-28T23:51:15.126Z,346.08
2022-09-28T23:53:41.543Z,314.27
2022-09-28T23:56:08.050Z,320.48
2022-09-28T23:58:34.449Z,331.00
